sensor_id;sensor_type;location;lat;lon;timestamp;temperature;humidity
20041;DHT22;10181;48.072;9.884;2023-04-25T00:02:23;6.90;99.90
20041;DHT22;10181;48.072;9.884;2023-04-25T00:04:50;6.90;99.90
20041;DHT22;10181;48.072;9.884;2023-04-25T00:07:16;6.90;99.90
20041;DHT22;10181;48.072;9.884;2023-04-25T00:09:42;6.90;99.90
20041;DHT22;10181;48.072;9.884;2023-04-25T00:12:08;6.90;99.90
20041;DHT22;10181;48.072;9.884;2023-04-25T00:14:34;6.90;99.90
20041;DHT22;10181;48.072;9.884;2023-04-25T00:17:01;6.80;99.90
20041;DHT22;10181;48.072;9.884;2023-04-25T00:19:26;6.80;99.90
20041;DHT22;10181;48.072;9.884;2023-04-25T00:21:54;6.80;99.90
20041;DHT22;10181;48.072;9.884;2023-04-25T00:24:20;6.80;99.90
20041;DHT22;10181;48.072;9.884;2023-04-25T00:26:46;6.80;99.90
20041;DHT22;10181;48.072;9.884;2023-04-25T00:29:12;6.80;99.90
20041;DHT22;10181;48.072;9.884;2023-04-25T00:31:37;6.90;99.90
20041;DHT22;10181;48.072;9.884;2023-04-25T00:34:03;6.80;99.90
20041;DHT22;10181;48.072;9.884;2023-04-25T00:36:29;6.80;99.90
20041;DHT22;10181;48.072;9.884;2023-04-25T00:38:55;6.80;99.90
20041;DHT22;10181;48.072;9.884;2023-04-25T00:41:21;6.80;99.90
20041;DHT22;10181;48.072;9.884;2023-04-25T00:43:48;6.80;99.90
20041;DHT22;10181;48.072;9.884;2023-04-25T00:46:13;6.90;99.90
20041;DHT22;10181;48.072;9.884;2023-04-25T00:48:39;7.00;99.90
20041;DHT22;10181;48.072;9.884;2023-04-25T00:51:04;7.00;99.90
20041;DHT22;10181;48.072;9.884;2023-04-25T00:53:30;7.00;99.90
20041;DHT22;10181;48.072;9.884;2023-04-25T00:55:57;7.10;99.90
20041;DHT22;10181;48.072;9.884;2023-04-25T00:58:24;7.00;99.90
20041;DHT22;10181;48.072;9.884;2023-04-25T01:00:51;7.10;99.90
20041;DHT22;10181;48.072;9.884;2023-04-25T01:03:19;7.00;99.90
20041;DHT22;10181;48.072;9.884;2023-04-25T01:05:46;6.90;99.90
20041;DHT22;10181;48.072;9.884;2023-04-25T01:08:12;6.70;99.90
20041;DHT22;10181;48.072;9.884;2023-04-25T01:10:38;6.40;99.90
20041;DHT22;10181;48.072;9.884;2023-04-25T01:13:04;6.10;99.90
20041;DHT22;10181;48.072;9.884;2023-04-25T01:15:29;5.90;99.90
20041;DHT22;10181;48.072;9.884;2023-04-25T01:17:55;5.70;99.90
20041;DHT22;10181;48.072;9.884;2023-04-25T01:20:22;5.60;99.90
20041;DHT22;10181;48.072;9.884;2023-04-25T01:22:48;5.40;99.90
20041;DHT22;10181;48.072;9.884;2023-04-25T01:25:15;5.40;99.90
20041;DHT22;10181;48.072;9.884;2023-04-25T01:27:40;5.40;99.90
20041;DHT22;10181;48.072;9.884;2023-04-25T01:30:07;5.40;99.90
20041;DHT22;10181;48.072;9.884;2023-04-25T01:32:33;5.40;99.90
20041;DHT22;10181;48.072;9.884;2023-04-25T01:35:08;5.40;99.90
20041;DHT22;10181;48.072;9.884;2023-04-25T01:37:41;5.40;99.90
20041;DHT22;10181;48.072;9.884;2023-04-25T01:40:09;5.40;99.90
20041;DHT22;10181;48.072;9.884;2023-04-25T01:42:37;5.40;99.90
20041;DHT22;10181;48.072;9.884;2023-04-25T01:45:03;5.30;99.90
20041;DHT22;10181;48.072;9.884;2023-04-25T01:47:29;5.30;99.90
20041;DHT22;10181;48.072;9.884;2023-04-25T01:49:55;5.30;99.90
20041;DHT22;10181;48.072;9.884;2023-04-25T01:52:21;5.40;99.90
20041;DHT22;10181;48.072;9.884;2023-04-25T01:54:47;5.40;99.90
20041;DHT22;10181;48.072;9.884;2023-04-25T01:57:13;5.40;99.90
20041;DHT22;10181;48.072;9.884;2023-04-25T01:59:40;5.50;99.90
20041;DHT22;10181;48.072;9.884;2023-04-25T02:02:06;5.50;99.90
20041;DHT22;10181;48.072;9.884;2023-04-25T02:04:32;5.50;99.90
20041;DHT22;10181;48.072;9.884;2023-04-25T02:06:58;5.50;99.90
20041;DHT22;10181;48.072;9.884;2023-04-25T02:09:23;5.50;99.90
20041;DHT22;10181;48.072;9.884;2023-04-25T02:11:49;5.50;99.90
20041;DHT22;10181;48.072;9.884;2023-04-25T02:14:15;5.50;99.90
20041;DHT22;10181;48.072;9.884;2023-04-25T02:16:40;5.50;99.90
20041;DHT22;10181;48.072;9.884;2023-04-25T02:19:06;5.60;99.90
20041;DHT22;10181;48.072;9.884;2023-04-25T02:21:32;5.60;99.90
20041;DHT22;10181;48.072;9.884;2023-04-25T02:24:01;5.60;99.90
20041;DHT22;10181;48.072;9.884;2023-04-25T02:26:26;5.60;99.90
20041;DHT22;10181;48.072;9.884;2023-04-25T02:28:52;5.60;99.90
20041;DHT22;10181;48.072;9.884;2023-04-25T02:31:17;5.60;99.90
20041;DHT22;10181;48.072;9.884;2023-04-25T02:33:43;5.60;99.90
20041;DHT22;10181;48.072;9.884;2023-04-25T02:36:09;5.70;99.90
20041;DHT22;10181;48.072;9.884;2023-04-25T02:38:35;5.70;99.90
20041;DHT22;10181;48.072;9.884;2023-04-25T02:41:01;5.70;99.90
20041;DHT22;10181;48.072;9.884;2023-04-25T02:43:26;5.80;99.90
20041;DHT22;10181;48.072;9.884;2023-04-25T02:45:52;5.80;99.90
20041;DHT22;10181;48.072;9.884;2023-04-25T02:48:17;5.80;99.90
20041;DHT22;10181;48.072;9.884;2023-04-25T02:50:43;5.80;99.90
20041;DHT22;10181;48.072;9.884;2023-04-25T02:53:09;5.80;99.90
20041;DHT22;10181;48.072;9.884;2023-04-25T02:55:34;5.80;99.90
20041;DHT22;10181;48.072;9.884;2023-04-25T02:58:00;5.80;99.90
20041;DHT22;10181;48.072;9.884;2023-04-25T03:00:26;5.70;99.90
20041;DHT22;10181;48.072;9.884;2023-04-25T03:02:51;5.70;99.90
20041;DHT22;10181;48.072;9.884;2023-04-25T03:05:17;5.70;99.90
20041;DHT22;10181;48.072;9.884;2023-04-25T03:07:43;5.70;99.90
20041;DHT22;10181;48.072;9.884;2023-04-25T03:10:10;5.70;99.90
20041;DHT22;10181;48.072;9.884;2023-04-25T03:12:36;5.80;99.90
20041;DHT22;10181;48.072;9.884;2023-04-25T03:15:02;5.90;99.90
20041;DHT22;10181;48.072;9.884;2023-04-25T03:17:28;5.90;99.90
20041;DHT22;10181;48.072;9.884;2023-04-25T03:19:54;6.00;99.90
20041;DHT22;10181;48.072;9.884;2023-04-25T03:22:19;6.00;99.90
20041;DHT22;10181;48.072;9.884;2023-04-25T03:24:45;5.90;99.90
20041;DHT22;10181;48.072;9.884;2023-04-25T03:27:11;5.90;99.90
20041;DHT22;10181;48.072;9.884;2023-04-25T03:29:36;5.90;99.90
20041;DHT22;10181;48.072;9.884;2023-04-25T03:32:02;5.80;99.90
20041;DHT22;10181;48.072;9.884;2023-04-25T03:34:27;5.80;99.90
20041;DHT22;10181;48.072;9.884;2023-04-25T03:36:53;5.80;99.90
20041;DHT22;10181;48.072;9.884;2023-04-25T03:39:19;5.80;99.90
20041;DHT22;10181;48.072;9.884;2023-04-25T03:41:44;5.70;99.90
20041;DHT22;10181;48.072;9.884;2023-04-25T03:44:10;5.70;99.90
20041;DHT22;10181;48.072;9.884;2023-04-25T03:46:35;5.70;99.90
20041;DHT22;10181;48.072;9.884;2023-04-25T03:49:01;5.70;99.90
20041;DHT22;10181;48.072;9.884;2023-04-25T03:51:27;5.60;99.90
20041;DHT22;10181;48.072;9.884;2023-04-25T03:53:52;5.50;99.90
20041;DHT22;10181;48.072;9.884;2023-04-25T03:56:18;5.50;99.90
20041;DHT22;10181;48.072;9.884;2023-04-25T03:58:44;5.40;99.90
20041;DHT22;10181;48.072;9.884;2023-04-25T04:01:10;5.30;99.90
20041;DHT22;10181;48.072;9.884;2023-04-25T04:03:36;5.30;99.90
20041;DHT22;10181;48.072;9.884;2023-04-25T04:06:05;5.30;99.90
20041;DHT22;10181;48.072;9.884;2023-04-25T04:08:32;5.30;99.90
20041;DHT22;10181;48.072;9.884;2023-04-25T04:10:58;5.30;99.90
20041;DHT22;10181;48.072;9.884;2023-04-25T04:13:26;5.30;99.90
20041;DHT22;10181;48.072;9.884;2023-04-25T04:15:52;5.20;99.90
20041;DHT22;10181;48.072;9.884;2023-04-25T04:18:17;5.20;99.90
20041;DHT22;10181;48.072;9.884;2023-04-25T04:20:43;5.20;99.90
20041;DHT22;10181;48.072;9.884;2023-04-25T04:23:09;5.30;99.90
20041;DHT22;10181;48.072;9.884;2023-04-25T04:25:34;5.40;99.90
20041;DHT22;10181;48.072;9.884;2023-04-25T04:28:00;5.50;99.90
20041;DHT22;10181;48.072;9.884;2023-04-25T04:30:27;5.50;99.90
20041;DHT22;10181;48.072;9.884;2023-04-25T04:32:56;5.50;99.90
20041;DHT22;10181;48.072;9.884;2023-04-25T04:35:23;5.50;99.90
20041;DHT22;10181;48.072;9.884;2023-04-25T04:37:49;5.50;99.90
20041;DHT22;10181;48.072;9.884;2023-04-25T04:40:15;5.40;99.90
20041;DHT22;10181;48.072;9.884;2023-04-25T04:42:41;5.50;99.90
20041;DHT22;10181;48.072;9.884;2023-04-25T04:45:08;5.50;99.90
20041;DHT22;10181;48.072;9.884;2023-04-25T04:47:34;5.60;99.90
20041;DHT22;10181;48.072;9.884;2023-04-25T04:50:06;5.50;99.90
20041;DHT22;10181;48.072;9.884;2023-04-25T04:52:32;5.40;99.90
20041;DHT22;10181;48.072;9.884;2023-04-25T04:54:58;5.40;99.90
20041;DHT22;10181;48.072;9.884;2023-04-25T04:57:23;5.40;99.90
20041;DHT22;10181;48.072;9.884;2023-04-25T04:59:49;5.40;99.90
20041;DHT22;10181;48.072;9.884;2023-04-25T05:02:15;5.50;99.90
20041;DHT22;10181;48.072;9.884;2023-04-25T05:04:41;5.50;99.90
20041;DHT22;10181;48.072;9.884;2023-04-25T05:07:06;5.50;99.90
20041;DHT22;10181;48.072;9.884;2023-04-25T05:09:32;5.50;99.90
20041;DHT22;10181;48.072;9.884;2023-04-25T05:11:58;5.50;99.90
20041;DHT22;10181;48.072;9.884;2023-04-25T05:14:23;5.50;99.90
20041;DHT22;10181;48.072;9.884;2023-04-25T05:16:49;5.50;99.90
20041;DHT22;10181;48.072;9.884;2023-04-25T05:19:15;5.60;99.90
20041;DHT22;10181;48.072;9.884;2023-04-25T05:21:40;5.50;99.90
20041;DHT22;10181;48.072;9.884;2023-04-25T05:24:06;5.50;99.90
20041;DHT22;10181;48.072;9.884;2023-04-25T05:26:31;5.50;99.90
20041;DHT22;10181;48.072;9.884;2023-04-25T05:28:57;5.50;99.90
20041;DHT22;10181;48.072;9.884;2023-04-25T05:31:23;5.60;99.90
20041;DHT22;10181;48.072;9.884;2023-04-25T05:33:49;5.60;99.90
20041;DHT22;10181;48.072;9.884;2023-04-25T05:36:14;5.70;99.90
20041;DHT22;10181;48.072;9.884;2023-04-25T05:38:40;5.70;99.90
20041;DHT22;10181;48.072;9.884;2023-04-25T05:41:05;5.80;99.90
20041;DHT22;10181;48.072;9.884;2023-04-25T05:43:31;5.80;99.90
20041;DHT22;10181;48.072;9.884;2023-04-25T05:45:57;5.90;99.90
20041;DHT22;10181;48.072;9.884;2023-04-25T05:48:22;5.90;99.90
20041;DHT22;10181;48.072;9.884;2023-04-25T05:50:48;6.00;99.90
20041;DHT22;10181;48.072;9.884;2023-04-25T05:53:13;6.10;99.90
20041;DHT22;10181;48.072;9.884;2023-04-25T05:55:39;6.30;99.90
20041;DHT22;10181;48.072;9.884;2023-04-25T05:58:05;6.40;99.90
20041;DHT22;10181;48.072;9.884;2023-04-25T06:00:32;6.40;99.90
20041;DHT22;10181;48.072;9.884;2023-04-25T06:02:58;6.50;99.90
20041;DHT22;10181;48.072;9.884;2023-04-25T06:05:23;6.50;99.90
20041;DHT22;10181;48.072;9.884;2023-04-25T06:07:49;6.50;99.90
20041;DHT22;10181;48.072;9.884;2023-04-25T06:10:14;6.60;99.90
20041;DHT22;10181;48.072;9.884;2023-04-25T06:12:40;6.60;99.90
20041;DHT22;10181;48.072;9.884;2023-04-25T06:15:06;6.60;99.90
20041;DHT22;10181;48.072;9.884;2023-04-25T06:17:33;6.70;99.90
20041;DHT22;10181;48.072;9.884;2023-04-25T06:19:58;6.80;99.90
20041;DHT22;10181;48.072;9.884;2023-04-25T06:22:24;6.90;99.90
20041;DHT22;10181;48.072;9.884;2023-04-25T06:24:49;7.00;99.90
20041;DHT22;10181;48.072;9.884;2023-04-25T06:27:15;7.10;99.90
20041;DHT22;10181;48.072;9.884;2023-04-25T06:29:40;7.10;99.90
20041;DHT22;10181;48.072;9.884;2023-04-25T06:32:06;7.10;99.90
20041;DHT22;10181;48.072;9.884;2023-04-25T06:34:32;7.20;99.90
20041;DHT22;10181;48.072;9.884;2023-04-25T06:36:57;7.30;99.90
20041;DHT22;10181;48.072;9.884;2023-04-25T06:39:23;7.30;99.90
20041;DHT22;10181;48.072;9.884;2023-04-25T06:41:50;7.30;99.90
20041;DHT22;10181;48.072;9.884;2023-04-25T06:44:15;7.30;99.90
20041;DHT22;10181;48.072;9.884;2023-04-25T06:46:41;7.40;99.90
20041;DHT22;10181;48.072;9.884;2023-04-25T06:49:07;7.40;99.90
20041;DHT22;10181;48.072;9.884;2023-04-25T06:51:32;7.50;99.90
20041;DHT22;10181;48.072;9.884;2023-04-25T06:53:58;7.60;99.90
20041;DHT22;10181;48.072;9.884;2023-04-25T06:56:24;7.70;99.90
20041;DHT22;10181;48.072;9.884;2023-04-25T06:58:49;7.70;99.90
20041;DHT22;10181;48.072;9.884;2023-04-25T07:01:15;7.80;99.90
20041;DHT22;10181;48.072;9.884;2023-04-25T07:03:41;7.90;99.90
20041;DHT22;10181;48.072;9.884;2023-04-25T07:06:07;8.00;99.90
20041;DHT22;10181;48.072;9.884;2023-04-25T07:22:00;8.70;99.90
20041;DHT22;10181;48.072;9.884;2023-04-25T07:24:26;8.90;99.90
20041;DHT22;10181;48.072;9.884;2023-04-25T07:26:51;9.10;99.90
20041;DHT22;10181;48.072;9.884;2023-04-25T07:29:17;9.00;99.90
20041;DHT22;10181;48.072;9.884;2023-04-25T07:31:42;8.90;99.90
20041;DHT22;10181;48.072;9.884;2023-04-25T07:34:08;9.10;99.90
20041;DHT22;10181;48.072;9.884;2023-04-25T07:36:34;9.20;99.90
20041;DHT22;10181;48.072;9.884;2023-04-25T07:38:59;9.30;99.90
20041;DHT22;10181;48.072;9.884;2023-04-25T07:41:25;9.10;99.90
20041;DHT22;10181;48.072;9.884;2023-04-25T07:43:50;9.00;99.90
20041;DHT22;10181;48.072;9.884;2023-04-25T07:46:16;9.00;99.90
20041;DHT22;10181;48.072;9.884;2023-04-25T07:48:42;8.80;99.90
20041;DHT22;10181;48.072;9.884;2023-04-25T07:51:07;8.90;99.90
20041;DHT22;10181;48.072;9.884;2023-04-25T07:53:33;9.00;99.90
20041;DHT22;10181;48.072;9.884;2023-04-25T07:56:00;9.10;99.90
20041;DHT22;10181;48.072;9.884;2023-04-25T07:58:25;9.20;99.90
20041;DHT22;10181;48.072;9.884;2023-04-25T08:00:51;9.20;99.90
20041;DHT22;10181;48.072;9.884;2023-04-25T08:03:17;9.20;99.90
20041;DHT22;10181;48.072;9.884;2023-04-25T08:05:42;9.10;99.90
20041;DHT22;10181;48.072;9.884;2023-04-25T08:08:08;9.00;99.90
20041;DHT22;10181;48.072;9.884;2023-04-25T08:10:34;8.80;99.90
20041;DHT22;10181;48.072;9.884;2023-04-25T08:12:59;8.70;99.90
20041;DHT22;10181;48.072;9.884;2023-04-25T08:15:25;8.80;99.90
20041;DHT22;10181;48.072;9.884;2023-04-25T08:17:51;8.80;99.90
20041;DHT22;10181;48.072;9.884;2023-04-25T08:20:17;8.80;99.90
20041;DHT22;10181;48.072;9.884;2023-04-25T08:22:43;8.80;99.90
20041;DHT22;10181;48.072;9.884;2023-04-25T08:25:08;8.80;99.90
20041;DHT22;10181;48.072;9.884;2023-04-25T08:27:34;8.80;99.90
20041;DHT22;10181;48.072;9.884;2023-04-25T08:30:01;9.00;99.90
20041;DHT22;10181;48.072;9.884;2023-04-25T08:32:29;9.00;99.90
20041;DHT22;10181;48.072;9.884;2023-04-25T08:34:55;9.00;99.90
20041;DHT22;10181;48.072;9.884;2023-04-25T08:37:21;9.00;99.90
20041;DHT22;10181;48.072;9.884;2023-04-25T08:39:47;8.90;99.90
20041;DHT22;10181;48.072;9.884;2023-04-25T08:42:15;8.90;99.90
20041;DHT22;10181;48.072;9.884;2023-04-25T08:44:41;8.80;99.90
20041;DHT22;10181;48.072;9.884;2023-04-25T08:47:06;8.70;99.90
20041;DHT22;10181;48.072;9.884;2023-04-25T08:49:33;8.70;99.90
20041;DHT22;10181;48.072;9.884;2023-04-25T08:52:02;8.70;99.90
20041;DHT22;10181;48.072;9.884;2023-04-25T08:54:31;8.70;99.90
20041;DHT22;10181;48.072;9.884;2023-04-25T08:56:57;8.70;99.90
20041;DHT22;10181;48.072;9.884;2023-04-25T08:59:27;8.70;99.90
20041;DHT22;10181;48.072;9.884;2023-04-25T09:01:53;8.70;99.90
20041;DHT22;10181;48.072;9.884;2023-04-25T09:04:19;8.70;99.90
20041;DHT22;10181;48.072;9.884;2023-04-25T09:06:46;8.20;99.90
20041;DHT22;10181;48.072;9.884;2023-04-25T09:09:11;7.90;99.90
20041;DHT22;10181;48.072;9.884;2023-04-25T09:11:37;7.10;99.90
20041;DHT22;10181;48.072;9.884;2023-04-25T09:14:20;6.20;99.90
20041;DHT22;10181;48.072;9.884;2023-04-25T09:19:31;5.30;99.90
20041;DHT22;10181;48.072;9.884;2023-04-25T09:21:59;5.20;99.90
20041;DHT22;10181;48.072;9.884;2023-04-25T09:24:43;5.10;99.90
20041;DHT22;10181;48.072;9.884;2023-04-25T09:27:11;5.10;99.90
20041;DHT22;10181;48.072;9.884;2023-04-25T09:29:38;5.20;99.90
20041;DHT22;10181;48.072;9.884;2023-04-25T09:32:20;5.20;99.90
20041;DHT22;10181;48.072;9.884;2023-04-25T09:34:50;5.30;99.90
20041;DHT22;10181;48.072;9.884;2023-04-25T09:37:30;5.40;99.90
20041;DHT22;10181;48.072;9.884;2023-04-25T09:39:59;5.40;99.90
20041;DHT22;10181;48.072;9.884;2023-04-25T09:42:29;5.40;99.90
20041;DHT22;10181;48.072;9.884;2023-04-25T09:44:57;5.40;99.90
20041;DHT22;10181;48.072;9.884;2023-04-25T09:47:25;5.30;99.90
20041;DHT22;10181;48.072;9.884;2023-04-25T09:49:52;5.20;99.90
20041;DHT22;10181;48.072;9.884;2023-04-25T09:52:23;5.20;99.90
20041;DHT22;10181;48.072;9.884;2023-04-25T09:54:50;5.20;99.90
20041;DHT22;10181;48.072;9.884;2023-04-25T09:57:21;5.20;99.90
20041;DHT22;10181;48.072;9.884;2023-04-25T10:02:16;5.10;99.90
20041;DHT22;10181;48.072;9.884;2023-04-25T10:04:44;5.10;99.90
20041;DHT22;10181;48.072;9.884;2023-04-25T10:07:11;4.90;99.90
20041;DHT22;10181;48.072;9.884;2023-04-25T10:09:38;4.90;99.90
20041;DHT22;10181;48.072;9.884;2023-04-25T10:12:06;4.80;99.90
20041;DHT22;10181;48.072;9.884;2023-04-25T10:14:33;4.80;99.90
20041;DHT22;10181;48.072;9.884;2023-04-25T10:16:59;4.70;99.90
20041;DHT22;10181;48.072;9.884;2023-04-25T10:19:26;4.60;99.90
20041;DHT22;10181;48.072;9.884;2023-04-25T10:22:04;4.70;99.90
20041;DHT22;10181;48.072;9.884;2023-04-25T10:24:30;4.80;99.90
20041;DHT22;10181;48.072;9.884;2023-04-25T10:26:56;4.90;99.90
20041;DHT22;10181;48.072;9.884;2023-04-25T10:29:26;4.90;99.90
20041;DHT22;10181;48.072;9.884;2023-04-25T10:31:52;4.90;99.90
20041;DHT22;10181;48.072;9.884;2023-04-25T10:34:18;5.00;99.90
20041;DHT22;10181;48.072;9.884;2023-04-25T10:36:53;5.10;99.90
20041;DHT22;10181;48.072;9.884;2023-04-25T10:39:24;5.10;99.90
20041;DHT22;10181;48.072;9.884;2023-04-25T10:41:56;5.10;99.90
20041;DHT22;10181;48.072;9.884;2023-04-25T10:44:22;5.10;99.90
20041;DHT22;10181;48.072;9.884;2023-04-25T10:46:47;5.10;99.90
20041;DHT22;10181;48.072;9.884;2023-04-25T10:49:48;5.10;99.90
20041;DHT22;10181;48.072;9.884;2023-04-25T10:54:52;5.10;99.90
20041;DHT22;10181;48.072;9.884;2023-04-25T10:57:41;5.10;99.90
20041;DHT22;10181;48.072;9.884;2023-04-25T11:00:14;5.10;99.90
20041;DHT22;10181;48.072;9.884;2023-04-25T11:02:58;5.20;99.90
20041;DHT22;10181;48.072;9.884;2023-04-25T11:05:32;5.20;99.90
20041;DHT22;10181;48.072;9.884;2023-04-25T11:07:58;5.40;99.90
20041;DHT22;10181;48.072;9.884;2023-04-25T11:10:29;5.40;99.90
20041;DHT22;10181;48.072;9.884;2023-04-25T11:12:56;5.40;99.90
20041;DHT22;10181;48.072;9.884;2023-04-25T11:15:21;5.40;99.90
20041;DHT22;10181;48.072;9.884;2023-04-25T11:17:47;5.50;99.90
20041;DHT22;10181;48.072;9.884;2023-04-25T11:20:13;5.50;99.90
20041;DHT22;10181;48.072;9.884;2023-04-25T11:22:41;5.40;99.90
20041;DHT22;10181;48.072;9.884;2023-04-25T11:25:10;5.30;99.90
20041;DHT22;10181;48.072;9.884;2023-04-25T11:27:59;5.20;99.90
20041;DHT22;10181;48.072;9.884;2023-04-25T11:30:26;5.10;99.90
20041;DHT22;10181;48.072;9.884;2023-04-25T11:32:52;5.20;99.90
20041;DHT22;10181;48.072;9.884;2023-04-25T11:35:19;5.30;99.90
20041;DHT22;10181;48.072;9.884;2023-04-25T11:37:46;5.30;99.90
20041;DHT22;10181;48.072;9.884;2023-04-25T11:40:12;5.30;99.90
20041;DHT22;10181;48.072;9.884;2023-04-25T11:42:38;5.30;99.90
20041;DHT22;10181;48.072;9.884;2023-04-25T11:45:05;5.40;99.90
20041;DHT22;10181;48.072;9.884;2023-04-25T11:47:32;5.50;99.90
20041;DHT22;10181;48.072;9.884;2023-04-25T11:49:59;5.50;99.90
20041;DHT22;10181;48.072;9.884;2023-04-25T11:52:35;5.50;99.90
20041;DHT22;10181;48.072;9.884;2023-04-25T11:55:01;5.60;99.90
20041;DHT22;10181;48.072;9.884;2023-04-25T11:57:31;5.60;99.90
20041;DHT22;10181;48.072;9.884;2023-04-25T12:00:06;5.60;99.90
20041;DHT22;10181;48.072;9.884;2023-04-25T12:02:31;5.60;99.90
20041;DHT22;10181;48.072;9.884;2023-04-25T12:04:59;5.70;99.90
20041;DHT22;10181;48.072;9.884;2023-04-25T12:07:31;5.70;99.90
20041;DHT22;10181;48.072;9.884;2023-04-25T12:09:57;5.70;99.90
20041;DHT22;10181;48.072;9.884;2023-04-25T12:12:27;5.80;99.90
20041;DHT22;10181;48.072;9.884;2023-04-25T12:14:53;5.80;99.90
20041;DHT22;10181;48.072;9.884;2023-04-25T12:17:20;5.80;99.90
20041;DHT22;10181;48.072;9.884;2023-04-25T12:19:47;5.80;99.90
20041;DHT22;10181;48.072;9.884;2023-04-25T12:22:23;5.80;99.90
20041;DHT22;10181;48.072;9.884;2023-04-25T12:24:49;5.70;99.90
20041;DHT22;10181;48.072;9.884;2023-04-25T12:27:16;5.70;99.90
20041;DHT22;10181;48.072;9.884;2023-04-25T12:29:51;5.70;99.90
20041;DHT22;10181;48.072;9.884;2023-04-25T12:32:17;5.70;99.90
20041;DHT22;10181;48.072;9.884;2023-04-25T12:34:43;5.70;99.90
20041;DHT22;10181;48.072;9.884;2023-04-25T12:37:09;5.80;99.90
20041;DHT22;10181;48.072;9.884;2023-04-25T12:39:34;5.80;99.90
20041;DHT22;10181;48.072;9.884;2023-04-25T12:42:00;5.90;99.90
20041;DHT22;10181;48.072;9.884;2023-04-25T12:44:26;6.00;99.90
20041;DHT22;10181;48.072;9.884;2023-04-25T12:46:52;6.00;99.90
20041;DHT22;10181;48.072;9.884;2023-04-25T12:49:18;6.00;99.90
20041;DHT22;10181;48.072;9.884;2023-04-25T12:51:43;5.90;99.90
20041;DHT22;10181;48.072;9.884;2023-04-25T12:54:09;5.80;99.90
20041;DHT22;10181;48.072;9.884;2023-04-25T12:56:35;5.70;99.90
20041;DHT22;10181;48.072;9.884;2023-04-25T12:59:02;5.70;99.90
20041;DHT22;10181;48.072;9.884;2023-04-25T13:01:29;5.70;99.90
20041;DHT22;10181;48.072;9.884;2023-04-25T13:03:55;5.70;99.90
20041;DHT22;10181;48.072;9.884;2023-04-25T13:06:21;5.60;99.90
20041;DHT22;10181;48.072;9.884;2023-04-25T13:08:47;5.40;99.90
20041;DHT22;10181;48.072;9.884;2023-04-25T13:11:13;5.30;99.90
20041;DHT22;10181;48.072;9.884;2023-04-25T13:13:42;5.30;99.90
20041;DHT22;10181;48.072;9.884;2023-04-25T13:16:08;5.20;99.90
20041;DHT22;10181;48.072;9.884;2023-04-25T13:18:34;5.30;99.90
20041;DHT22;10181;48.072;9.884;2023-04-25T13:21:00;5.20;99.90
20041;DHT22;10181;48.072;9.884;2023-04-25T13:23:27;5.20;99.90
20041;DHT22;10181;48.072;9.884;2023-04-25T13:25:54;5.20;99.90
20041;DHT22;10181;48.072;9.884;2023-04-25T13:28:20;5.30;99.90
20041;DHT22;10181;48.072;9.884;2023-04-25T13:30:46;5.30;99.90
20041;DHT22;10181;48.072;9.884;2023-04-25T13:33:13;5.40;99.90
20041;DHT22;10181;48.072;9.884;2023-04-25T13:35:39;5.50;99.90
20041;DHT22;10181;48.072;9.884;2023-04-25T13:38:05;5.50;99.90
20041;DHT22;10181;48.072;9.884;2023-04-25T13:40:30;5.60;99.90
20041;DHT22;10181;48.072;9.884;2023-04-25T13:42:57;5.60;99.90
20041;DHT22;10181;48.072;9.884;2023-04-25T13:45:23;5.70;99.90
20041;DHT22;10181;48.072;9.884;2023-04-25T13:47:49;5.80;99.90
20041;DHT22;10181;48.072;9.884;2023-04-25T13:50:15;6.00;99.90
20041;DHT22;10181;48.072;9.884;2023-04-25T13:52:41;6.20;99.90
20041;DHT22;10181;48.072;9.884;2023-04-25T13:55:08;6.40;99.90
20041;DHT22;10181;48.072;9.884;2023-04-25T13:57:34;6.40;99.90
20041;DHT22;10181;48.072;9.884;2023-04-25T14:00:00;6.60;99.90
20041;DHT22;10181;48.072;9.884;2023-04-25T14:02:30;6.80;99.90
20041;DHT22;10181;48.072;9.884;2023-04-25T14:04:55;6.80;99.90
20041;DHT22;10181;48.072;9.884;2023-04-25T14:07:21;6.90;99.90
20041;DHT22;10181;48.072;9.884;2023-04-25T14:09:47;7.00;99.90
20041;DHT22;10181;48.072;9.884;2023-04-25T14:12:12;7.10;99.90
20041;DHT22;10181;48.072;9.884;2023-04-25T14:14:38;7.20;99.90
20041;DHT22;10181;48.072;9.884;2023-04-25T14:17:04;7.00;99.90
20041;DHT22;10181;48.072;9.884;2023-04-25T14:19:29;6.90;99.90
20041;DHT22;10181;48.072;9.884;2023-04-25T14:21:55;6.90;99.90
20041;DHT22;10181;48.072;9.884;2023-04-25T14:24:21;7.00;99.90
20041;DHT22;10181;48.072;9.884;2023-04-25T14:26:46;7.20;99.90
20041;DHT22;10181;48.072;9.884;2023-04-25T14:29:12;7.20;99.90
20041;DHT22;10181;48.072;9.884;2023-04-25T14:31:38;7.30;99.90
20041;DHT22;10181;48.072;9.884;2023-04-25T14:34:05;7.30;99.90
20041;DHT22;10181;48.072;9.884;2023-04-25T14:36:31;7.40;99.90
20041;DHT22;10181;48.072;9.884;2023-04-25T14:38:57;7.60;99.90
20041;DHT22;10181;48.072;9.884;2023-04-25T14:41:24;7.90;99.90
20041;DHT22;10181;48.072;9.884;2023-04-25T14:43:50;8.10;99.90
20041;DHT22;10181;48.072;9.884;2023-04-25T14:46:15;8.00;99.90
20041;DHT22;10181;48.072;9.884;2023-04-25T14:48:42;7.80;99.90
20041;DHT22;10181;48.072;9.884;2023-04-25T14:51:07;7.70;99.90
20041;DHT22;10181;48.072;9.884;2023-04-25T14:53:33;7.60;99.90
20041;DHT22;10181;48.072;9.884;2023-04-25T14:55:59;7.50;99.90
20041;DHT22;10181;48.072;9.884;2023-04-25T14:58:25;7.50;99.90
20041;DHT22;10181;48.072;9.884;2023-04-25T15:00:50;7.50;99.90
20041;DHT22;10181;48.072;9.884;2023-04-25T15:03:17;7.40;99.90
20041;DHT22;10181;48.072;9.884;2023-04-25T15:05:43;7.40;99.90
20041;DHT22;10181;48.072;9.884;2023-04-25T15:08:09;7.30;99.90
20041;DHT22;10181;48.072;9.884;2023-04-25T15:10:36;7.20;99.90
20041;DHT22;10181;48.072;9.884;2023-04-25T15:13:01;7.30;99.90
20041;DHT22;10181;48.072;9.884;2023-04-25T15:15:28;7.30;99.90
20041;DHT22;10181;48.072;9.884;2023-04-25T15:17:54;7.30;99.90
20041;DHT22;10181;48.072;9.884;2023-04-25T15:20:21;7.40;99.90
20041;DHT22;10181;48.072;9.884;2023-04-25T15:22:47;7.50;99.90
20041;DHT22;10181;48.072;9.884;2023-04-25T15:25:15;7.50;99.90
20041;DHT22;10181;48.072;9.884;2023-04-25T15:27:43;7.50;99.90
20041;DHT22;10181;48.072;9.884;2023-04-25T15:30:11;7.50;99.90
20041;DHT22;10181;48.072;9.884;2023-04-25T15:32:38;7.60;99.90
20041;DHT22;10181;48.072;9.884;2023-04-25T15:35:05;7.60;99.90
20041;DHT22;10181;48.072;9.884;2023-04-25T15:37:32;7.70;99.90
20041;DHT22;10181;48.072;9.884;2023-04-25T15:40:03;7.70;99.90
20041;DHT22;10181;48.072;9.884;2023-04-25T15:42:35;7.90;99.90
20041;DHT22;10181;48.072;9.884;2023-04-25T15:45:01;8.10;99.90
20041;DHT22;10181;48.072;9.884;2023-04-25T15:47:26;8.20;99.90
20041;DHT22;10181;48.072;9.884;2023-04-25T15:49:52;8.40;99.90
20041;DHT22;10181;48.072;9.884;2023-04-25T15:52:18;8.70;99.90
20041;DHT22;10181;48.072;9.884;2023-04-25T15:54:46;8.80;99.90
20041;DHT22;10181;48.072;9.884;2023-04-25T15:57:12;8.80;99.90
20041;DHT22;10181;48.072;9.884;2023-04-25T15:59:37;8.80;99.90
20041;DHT22;10181;48.072;9.884;2023-04-25T16:02:03;9.00;99.90
20041;DHT22;10181;48.072;9.884;2023-04-25T16:04:29;9.10;99.90